Time;durP1;ratioP1;P1;durP2;ratioP2;P2;SDS_P1;SDS_P2;PMS_P1;PMS_P2;Temp;Humidity;BMP_temperature;BMP_pressure;BME280_temperature;BME280_humidity;BME280_pressure;Samples;Min_cycle;Max_cycle;Signal;HPM_P1;HPM_P2
2022/05/21 00:00:33;;;;;;;3.47;2.35;;;17.30;99.90;;;;;;5037164;28;20028;-77
2022/05/21 00:02:59;;;;;;;3.10;2.13;;;17.10;99.90;;;;;;5053388;28;20033;-77
2022/05/21 00:05:28;;;;;;;7.00;2.33;;;17.10;99.90;;;;;;5032930;28;20155;-77
2022/05/21 00:07:54;;;;;;;2.50;2.17;;;17.10;99.90;;;;;;5039775;28;20025;-76
2022/05/21 00:10:21;;;;;;;4.63;2.40;;;17.00;99.90;;;;;;5053293;28;20027;-75
2022/05/21 00:12:47;;;;;;;3.50;2.40;;;16.80;99.90;;;;;;5045405;28;20479;-76
2022/05/21 00:15:16;;;;;;;4.90;2.67;;;16.60;99.90;;;;;;5033264;28;20128;-76
2022/05/21 00:17:42;;;;;;;3.92;2.75;;;16.50;99.90;;;;;;5046879;28;20030;-76
2022/05/21 00:20:47;;;;;;;4.18;2.60;;;16.40;99.90;;;;;;5033760;28;20130;-77
2022/05/21 00:22:54;;;;;;;3.50;2.60;;;16.30;99.90;;;;;;5034333;28;20049;-77
2022/05/21 00:25:20;;;;;;;3.97;2.55;;;16.20;99.90;;;;;;5033086;28;20468;-77
2022/05/21 00:27:46;;;;;;;2.72;2.50;;;16.10;99.90;;;;;;5038711;28;20025;-75
2022/05/21 00:30:13;;;;;;;4.20;2.78;;;15.90;99.90;;;;;;5049559;28;20465;-75
2022/05/21 00:32:39;;;;;;;3.38;2.80;;;15.90;99.90;;;;;;5044106;28;20033;-76
2022/05/21 00:35:05;;;;;;;3.22;2.92;;;15.90;99.90;;;;;;5038900;28;20022;-76
2022/05/21 00:37:30;;;;;;;4.25;3.40;;;15.90;99.90;;;;;;5041799;28;20049;-76
2022/05/21 00:39:56;;;;;;;4.07;3.08;;;15.60;99.90;;;;;;5037944;28;20122;-77
2022/05/21 00:42:21;;;;;;;5.03;3.30;;;15.50;99.90;;;;;;5043226;28;20571;-75
2022/05/21 00:44:47;;;;;;;4.55;3.53;;;15.50;99.90;;;;;;5045488;28;20025;-76
2022/05/21 00:47:12;;;;;;;4.32;3.10;;;15.50;99.90;;;;;;5043709;28;20024;-74
2022/05/21 00:49:39;;;;;;;5.72;3.25;;;15.40;99.90;;;;;;5049745;28;20072;-74
2022/05/21 00:52:13;;;;;;;4.53;3.65;;;15.20;99.90;;;;;;5032823;28;20382;-73
2022/05/21 00:54:43;;;;;;;5.15;3.83;;;15.20;99.90;;;;;;5037705;28;20023;-74
2022/05/21 00:57:24;;;;;;;4.13;3.72;;;15.30;99.90;;;;;;5050841;28;20028;-75
2022/05/21 00:59:53;;;;;;;4.20;3.80;;;15.10;99.90;;;;;;5053013;28;20049;-75
2022/05/21 01:02:47;;;;;;;4.18;3.47;;;15.10;99.90;;;;;;5050722;28;20029;-76
2022/05/21 01:05:15;;;;;;;5.63;3.72;;;15.10;99.90;;;;;;5038489;28;20072;-75
2022/05/21 01:07:43;;;;;;;5.18;4.10;;;14.80;99.90;;;;;;5052770;28;20053;-76
2022/05/21 01:10:10;;;;;;;4.20;3.80;;;14.80;99.90;;;;;;5051348;28;20031;-76
2022/05/21 01:12:43;;;;;;;5.05;4.30;;;14.90;99.90;;;;;;5050964;28;20082;-76
2022/05/21 01:15:15;;;;;;;12.98;3.97;;;14.70;99.90;;;;;;5052472;28;20052;-76
2022/05/21 01:17:41;;;;;;;7.72;4.13;;;14.70;99.90;;;;;;5042660;28;20021;-76
2022/05/21 01:20:18;;;;;;;5.82;4.30;;;14.70;99.90;;;;;;5043932;28;20108;-76
2022/05/21 01:22:46;;;;;;;7.63;4.32;;;14.60;99.90;;;;;;5046520;28;20024;-77
2022/05/21 01:25:14;;;;;;;5.30;4.55;;;14.50;99.90;;;;;;5044083;28;20088;-77
2022/05/21 01:27:41;;;;;;;4.75;4.28;;;14.40;99.90;;;;;;5043822;28;20084;-77
2022/05/21 01:30:10;;;;;;;4.88;4.40;;;14.50;99.90;;;;;;5042660;28;20025;-77
2022/05/21 01:32:36;;;;;;;5.68;4.78;;;14.50;99.90;;;;;;5045611;28;20040;-75
2022/05/21 01:35:02;;;;;;;4.53;4.13;;;14.40;99.90;;;;;;5050733;28;20425;-76
2022/05/21 01:37:29;;;;;;;7.57;4.53;;;14.50;99.90;;;;;;5050972;28;20029;-76
2022/05/21 01:39:54;;;;;;;4.78;4.28;;;14.30;99.90;;;;;;5052214;28;20033;-75
2022/05/21 01:42:20;;;;;;;5.03;4.63;;;14.30;99.90;;;;;;5050241;28;20502;-75
2022/05/21 01:44:52;;;;;;;4.82;4.38;;;14.20;99.90;;;;;;5043166;28;20021;-76
2022/05/21 01:47:18;;;;;;;4.40;4.00;;;14.20;99.90;;;;;;5042184;28;20040;-77
2022/05/21 01:49:43;;;;;;;6.43;4.40;;;14.20;99.90;;;;;;5051837;28;20033;-77
2022/05/21 01:52:10;;;;;;;5.43;4.28;;;14.10;99.90;;;;;;5051558;28;20593;-78
2022/05/21 01:54:36;;;;;;;4.78;4.38;;;14.10;99.90;;;;;;5052036;28;20021;-77
2022/05/21 01:57:03;;;;;;;4.80;4.40;;;13.90;99.90;;;;;;5052194;28;20466;-77
2022/05/21 01:59:28;;;;;;;5.88;4.40;;;14.10;99.90;;;;;;5052126;28;20099;-77
2022/05/21 02:01:54;;;;;;;5.13;4.20;;;14.00;99.90;;;;;;5051095;28;20475;-77
2022/05/21 02:04:20;;;;;;;5.78;4.53;;;14.10;99.90;;;;;;5045501;28;20104;-76
2022/05/21 02:06:47;;;;;;;6.75;4.32;;;14.20;99.90;;;;;;5051593;28;20116;-76
2022/05/21 02:09:13;;;;;;;4.70;4.30;;;14.00;99.90;;;;;;5039210;28;20079;-77
2022/05/21 02:11:39;;;;;;;8.70;5.05;;;14.00;99.90;;;;;;5041853;28;20024;-78
2022/05/21 02:14:06;;;;;;;6.78;4.55;;;13.90;99.90;;;;;;5042834;28;20025;-77
2022/05/21 02:16:34;;;;;;;4.63;4.13;;;14.00;99.90;;;;;;5050331;28;20451;-77
2022/05/21 02:19:01;;;;;;;6.28;4.55;;;14.00;99.90;;;;;;5050222;28;20021;-77
2022/05/21 02:21:28;;;;;;;4.90;4.28;;;14.00;99.90;;;;;;5036982;28;20487;-77
2022/05/21 02:23:53;;;;;;;4.70;4.30;;;13.90;99.90;;;;;;5031640;28;20051;-78
2022/05/21 02:26:19;;;;;;;5.55;4.57;;;14.00;99.90;;;;;;5031290;28;20511;-77
2022/05/21 02:28:45;;;;;;;5.30;4.40;;;14.10;99.90;;;;;;5030340;28;20025;-76
2022/05/21 02:31:10;;;;;;;4.70;4.30;;;13.90;99.90;;;;;;5030898;28;20018;-75
2022/05/21 02:33:36;;;;;;;5.65;4.55;;;13.90;99.90;;;;;;5031295;28;20359;-75
2022/05/21 02:36:01;;;;;;;5.65;4.40;;;13.90;99.90;;;;;;5031501;28;20387;-75
2022/05/21 02:41:13;;;;;;;5.65;4.75;;;13.90;99.90;;;;;;5031069;28;20080;-76
2022/05/21 02:43:39;;;;;;;4.93;4.20;;;13.70;99.90;;;;;;5038250;28;20095;-77
2022/05/21 02:46:05;;;;;;;6.47;4.57;;;13.80;99.90;;;;;;5049910;28;20482;-77
2022/05/21 02:48:31;;;;;;;4.63;4.22;;;13.70;99.90;;;;;;5031484;28;20435;-76
2022/05/21 02:50:57;;;;;;;6.03;4.40;;;13.80;99.90;;;;;;5030700;28;20049;-76
2022/05/21 02:53:22;;;;;;;6.47;4.75;;;13.60;99.90;;;;;;5047008;28;20048;-75
2022/05/21 02:55:51;;;;;;;5.25;4.78;;;13.50;99.90;;;;;;5050561;28;20033;-76
2022/05/21 02:58:17;;;;;;;5.00;4.60;;;13.60;99.90;;;;;;5034907;28;20028;-77
2022/05/21 03:00:44;;;;;;;5.47;4.95;;;13.40;99.90;;;;;;5049098;28;20155;-77
2022/05/21 03:03:11;;;;;;;5.22;4.72;;;13.30;99.90;;;;;;5038153;28;20081;-77
2022/05/21 03:05:36;;;;;;;5.40;4.88;;;13.30;99.90;;;;;;5030038;28;20112;-77
2022/05/21 03:10:20;;;;;;;5.25;4.75;;;13.30;99.90;;;;;;5029917;28;20108;-77
2022/05/21 03:10:54;;;;;;;5.10;4.40;;;13.40;99.90;;;;;;5042908;28;20025;-78
2022/05/21 03:13:20;;;;;;;5.15;4.65;;;13.30;99.90;;;;;;5041758;28;20556;-77
2022/05/21 03:15:46;;;;;;;5.22;4.72;;;13.20;99.90;;;;;;5050950;28;20053;-78
2022/05/21 03:18:12;;;;;;;7.55;4.30;;;13.10;99.90;;;;;;5051602;28;20029;-76
2022/05/21 03:20:39;;;;;;;5.22;4.72;;;13.10;99.90;;;;;;5050037;28;20033;-77
2022/05/21 03:23:05;;;;;;;5.28;4.78;;;13.00;99.90;;;;;;5053437;28;20032;-77
2022/05/21 03:25:32;;;;;;;7.15;4.43;;;13.00;99.90;;;;;;5053711;28;20055;-77
2022/05/21 03:27:58;;;;;;;4.97;4.43;;;13.00;99.90;;;;;;5054859;28;20021;-77
2022/05/21 03:30:26;;;;;;;5.78;4.20;;;13.00;99.90;;;;;;5035493;28;20025;-76
2022/05/21 03:32:52;;;;;;;4.75;4.07;;;13.10;99.90;;;;;;5034670;28;20029;-76
2022/05/21 03:35:18;;;;;;;4.57;4.22;;;13.10;99.90;;;;;;5034720;28;20096;-76
2022/05/21 03:37:44;;;;;;;6.20;4.65;;;12.90;99.90;;;;;;5034701;28;20108;-76
2022/05/21 03:40:13;;;;;;;4.82;4.22;;;12.80;99.90;;;;;;5040414;28;20122;-77
2022/05/21 03:42:39;;;;;;;6.35;4.47;;;12.70;99.90;;;;;;5052220;28;20079;-76
2022/05/21 03:45:06;;;;;;;4.80;4.32;;;12.80;99.90;;;;;;5051372;28;20028;-76
2022/05/21 03:47:32;;;;;;;4.82;4.43;;;12.70;99.90;;;;;;5042010;28;20018;-76
2022/05/21 03:49:58;;;;;;;4.55;4.15;;;12.70;99.90;;;;;;5046977;28;20032;-76
2022/05/21 03:52:23;;;;;;;5.10;4.22;;;12.70;99.90;;;;;;5052200;28;20033;-77
2022/05/21 03:54:49;;;;;;;5.47;4.28;;;12.70;99.90;;;;;;5054062;28;20024;-77
2022/05/21 03:57:16;;;;;;;5.72;4.90;;;12.60;99.90;;;;;;5054249;28;20107;-77
2022/05/21 03:59:43;;;;;;;4.78;4.25;;;12.60;99.90;;;;;;5043247;28;20546;-77
2022/05/21 04:02:09;;;;;;;5.00;4.60;;;12.50;99.90;;;;;;5044371;28;20065;-76
2022/05/21 04:04:35;;;;;;;4.88;4.38;;;12.60;99.90;;;;;;5053736;28;20079;-76
2022/05/21 04:07:00;;;;;;;6.75;4.68;;;12.60;99.90;;;;;;5054905;28;20048;-77
2022/05/21 04:09:29;;;;;;;5.90;4.60;;;12.60;99.90;;;;;;5047974;28;20059;-77
2022/05/21 04:11:55;;;;;;;4.90;4.20;;;12.50;99.90;;;;;;5032993;28;20116;-77
2022/05/21 04:14:27;;;;;;;6.20;3.90;;;12.50;99.90;;;;;;5034944;28;20053;-76
2022/05/21 04:16:52;;;;;;;4.57;4.05;;;12.40;99.90;;;;;;5034737;28;20500;-77
2022/05/21 04:19:18;;;;;;;5.30;4.13;;;12.40;99.90;;;;;;5033389;28;20022;-77
2022/05/21 04:21:43;;;;;;;3.95;3.65;;;12.40;99.90;;;;;;5033258;28;20029;-76
2022/05/21 04:24:09;;;;;;;4.57;4.13;;;12.40;99.90;;;;;;5036574;28;20518;-76
2022/05/21 04:26:34;;;;;;;4.28;3.88;;;12.50;99.90;;;;;;5041925;28;20053;-76
2022/05/21 04:29:00;;;;;;;5.53;4.13;;;12.50;99.90;;;;;;5038532;28;20065;-76
2022/05/21 04:31:25;;;;;;;4.95;4.47;;;12.40;99.90;;;;;;5051792;28;20013;-76
2022/05/21 04:33:51;;;;;;;5.25;4.10;;;12.40;99.90;;;;;;5035720;28;20033;-75
2022/05/21 04:36:20;;;;;;;4.50;4.10;;;12.20;99.90;;;;;;5043123;28;20109;-75
2022/05/21 04:38:47;;;;;;;5.57;4.90;;;12.30;99.90;;;;;;5041762;28;20101;-75
2022/05/21 04:41:13;;;;;;;5.63;4.03;;;12.20;99.90;;;;;;5031586;28;20026;-75
2022/05/21 04:43:38;;;;;;;4.57;4.18;;;12.20;99.90;;;;;;5033425;28;20048;-75
2022/05/21 04:46:04;;;;;;;6.30;4.40;;;12.20;99.90;;;;;;5032196;28;20521;-74
2022/05/21 04:48:30;;;;;;;5.50;3.90;;;12.40;99.90;;;;;;5033245;28;20034;-75
2022/05/21 04:51:00;;;;;;;4.32;3.80;;;12.70;99.90;;;;;;5032482;28;20049;-75
2022/05/21 04:53:26;;;;;;;5.28;4.25;;;12.90;99.90;;;;;;5039830;28;20485;-75
2022/05/21 04:55:52;;;;;;;6.32;4.35;;;13.00;99.90;;;;;;5053028;28;20103;-76
2022/05/21 04:58:17;;;;;;;5.18;4.43;;;13.00;99.90;;;;;;5044370;28;20029;-76
2022/05/21 05:00:43;;;;;;;5.82;4.30;;;13.00;99.90;;;;;;5034375;28;20028;-77
2022/05/21 05:03:13;;;;;;;6.68;4.03;;;13.10;99.90;;;;;;5034042;28;20041;-76
2022/05/21 05:05:39;;;;;;;5.18;4.15;;;13.10;99.90;;;;;;5033106;28;20121;-75
2022/05/21 05:08:05;;;;;;;7.13;4.82;;;13.20;99.90;;;;;;5033002;28;20387;-76
2022/05/21 05:10:32;;;;;;;7.13;4.15;;;13.20;99.90;;;;;;5032268;28;20025;-75
2022/05/21 05:12:57;;;;;;;4.55;4.07;;;13.20;99.90;;;;;;5032737;28;20037;-75
2022/05/21 05:15:23;;;;;;;5.57;4.43;;;13.30;99.90;;;;;;5034925;28;20021;-75
2022/05/21 05:17:48;;;;;;;6.57;4.55;;;13.30;99.90;;;;;;5045549;28;20021;-76
2022/05/21 05:20:14;;;;;;;6.32;4.20;;;13.30;99.90;;;;;;5043134;28;20717;-76
2022/05/21 05:22:39;;;;;;;7.10;4.25;;;13.30;99.90;;;;;;5045565;28;20029;-76
2022/05/21 05:25:06;;;;;;;5.95;4.72;;;13.40;99.90;;;;;;5032516;28;20028;-75
2022/05/21 05:27:31;;;;;;;5.57;4.35;;;13.30;99.90;;;;;;5032527;28;20030;-76
2022/05/21 05:29:58;;;;;;;7.35;5.32;;;13.20;99.90;;;;;;5031114;28;20037;-76
2022/05/21 05:32:24;;;;;;;6.00;4.40;;;13.20;99.90;;;;;;5031729;28;20056;-76
2022/05/21 05:34:49;;;;;;;6.32;4.60;;;13.40;99.90;;;;;;5033149;28;20061;-76
2022/05/21 05:37:15;;;;;;;7.10;4.40;;;13.40;99.90;;;;;;5051243;28;20481;-76
2022/05/21 05:39:40;;;;;;;6.43;4.72;;;13.40;99.90;;;;;;5038413;28;20303;-73
2022/05/21 05:42:06;;;;;;;6.70;4.38;;;13.40;99.90;;;;;;5038851;28;20364;-75
2022/05/21 05:44:31;;;;;;;6.90;4.50;;;13.50;99.90;;;;;;5037934;28;20033;-75
2022/05/21 05:46:57;;;;;;;5.38;4.50;;;13.40;99.90;;;;;;5038750;28;20055;-76
2022/05/21 05:49:23;;;;;;;6.60;4.28;;;13.50;99.90;;;;;;5037265;28;20029;-76
2022/05/21 05:51:48;;;;;;;7.15;4.35;;;13.50;99.90;;;;;;5031421;28;20021;-72
2022/05/21 05:54:14;;;;;;;6.70;4.18;;;13.50;99.90;;;;;;5032736;28;20575;-75
2022/05/21 05:56:44;;;;;;;4.55;3.97;;;13.60;99.90;;;;;;5050686;28;20025;-75
2022/05/21 06:02:58;;;;;;;6.65;3.80;;;13.50;99.90;;;;;;5051240;28;20048;-76
2022/05/21 06:04:40;;;;;;;4.43;3.85;;;13.50;99.90;;;;;;5041782;28;20088;-76
2022/05/21 06:07:06;;;;;;;5.65;3.83;;;13.40;99.90;;;;;;5041766;28;20026;-76
2022/05/21 06:09:32;;;;;;;4.55;3.38;;;13.50;99.90;;;;;;5043502;28;20371;-77
2022/05/21 06:11:58;;;;;;;4.18;3.50;;;13.50;99.90;;;;;;5033846;28;20025;-76
2022/05/21 06:14:25;;;;;;;9.15;3.83;;;13.50;99.90;;;;;;5038089;28;20033;-77
2022/05/21 06:16:51;;;;;;;7.00;4.40;;;13.60;99.90;;;;;;5051718;28;20017;-76
2022/05/21 06:19:17;;;;;;;4.82;3.30;;;13.50;99.90;;;;;;5046838;28;20063;-76
2022/05/21 06:21:42;;;;;;;7.97;4.05;;;13.40;99.90;;;;;;5051064;28;20039;-76
2022/05/21 06:24:08;;;;;;;4.03;3.50;;;13.40;99.90;;;;;;5035789;28;20060;-76
2022/05/21 06:26:33;;;;;;;4.20;3.55;;;13.40;99.90;;;;;;5044947;28;20036;-76
2022/05/21 06:28:59;;;;;;;5.03;3.40;;;13.50;99.90;;;;;;5051642;28;20393;-77
2022/05/21 06:31:24;;;;;;;5.15;3.70;;;13.60;99.90;;;;;;5038195;28;20467;-76
2022/05/21 06:33:50;;;;;;;4.25;3.35;;;13.40;99.90;;;;;;5045046;28;20032;-76
2022/05/21 06:36:16;;;;;;;4.65;3.33;;;13.40;99.90;;;;;;5044290;28;20021;-77
2022/05/21 06:38:43;;;;;;;5.05;3.30;;;13.60;99.90;;;;;;5037939;28;20502;-76
2022/05/21 06:41:09;;;;;;;6.10;3.80;;;13.90;99.90;;;;;;5036708;28;20456;-75
2022/05/21 06:43:35;;;;;;;7.63;3.42;;;14.10;99.90;;;;;;5050861;28;20096;-76
2022/05/21 06:46:01;;;;;;;3.15;2.80;;;14.20;99.90;;;;;;5050571;28;20039;-76
2022/05/21 06:48:27;;;;;;;6.55;3.00;;;14.30;99.90;;;;;;5038933;28;20021;-77
2022/05/21 06:50:55;;;;;;;4.13;2.70;;;14.30;99.90;;;;;;5041198;28;20083;-77
2022/05/21 06:53:20;;;;;;;4.57;2.88;;;14.20;99.90;;;;;;5050513;28;20028;-77
2022/05/21 06:55:46;;;;;;;3.90;3.15;;;14.20;99.90;;;;;;5051019;28;20402;-77
2022/05/21 06:58:12;;;;;;;3.05;2.75;;;14.10;99.90;;;;;;5054235;28;20021;-73
2022/05/21 07:00:38;;;;;;;4.47;2.88;;;14.10;99.90;;;;;;5054435;28;20025;-76
2022/05/21 07:03:03;;;;;;;5.35;2.80;;;14.00;99.90;;;;;;5042507;28;20028;-77
2022/05/21 07:08:26;;;;;;;3.65;2.65;;;13.60;99.90;;;;;;5052078;28;20041;-76
2022/05/21 07:10:52;;;;;;;3.92;2.63;;;13.90;99.90;;;;;;5048116;28;20022;-76
2022/05/21 07:13:20;;;;;;;2.83;2.33;;;14.30;99.90;;;;;;5045979;28;20104;-76
2022/05/21 07:15:48;;;;;;;4.40;2.42;;;14.40;99.90;;;;;;5035361;28;20025;-76
2022/05/21 07:18:17;;;;;;;4.20;2.95;;;14.50;99.90;;;;;;5046271;28;20055;-77
2022/05/21 07:20:42;;;;;;;2.88;2.60;;;14.40;99.90;;;;;;5054452;28;20025;-76
2022/05/21 07:23:08;;;;;;;5.05;3.53;;;14.70;99.90;;;;;;5042531;28;20041;-77
2022/05/21 07:25:35;;;;;;;4.57;3.08;;;14.80;99.90;;;;;;5048377;28;20061;-77
2022/05/21 07:28:00;;;;;;;4.25;2.80;;;14.60;99.90;;;;;;5047913;28;20025;-77
2022/05/21 07:30:27;;;;;;;4.70;2.78;;;14.30;99.90;;;;;;5040934;28;20032;-77
2022/05/21 07:32:55;;;;;;;3.47;2.58;;;14.30;99.90;;;;;;5041825;28;20027;-76
2022/05/21 07:35:22;;;;;;;3.20;2.47;;;14.80;99.90;;;;;;5041504;28;20024;-76
2022/05/21 07:37:48;;;;;;;3.38;2.88;;;14.90;99.90;;;;;;5054826;28;20751;-76
2022/05/21 07:40:16;;;;;;;4.63;3.00;;;15.20;99.90;;;;;;5051743;28;20043;-77
2022/05/21 07:42:42;;;;;;;2.80;2.38;;;14.90;99.90;;;;;;5054435;28;20021;-77
2022/05/21 07:45:09;;;;;;;3.17;2.63;;;14.70;99.90;;;;;;5041517;28;20036;-76
2022/05/21 07:47:35;;;;;;;3.08;2.45;;;14.60;99.90;;;;;;5040040;28;20060;-77
2022/05/21 07:50:01;;;;;;;3.53;2.38;;;15.00;99.90;;;;;;5052126;28;20052;-78
2022/05/21 07:52:28;;;;;;;2.80;2.30;;;15.20;99.90;;;;;;5044490;28;20025;-76
2022/05/21 07:54:54;;;;;;;4.07;2.15;;;15.40;99.90;;;;;;5040612;28;20029;-77
2022/05/21 07:57:20;;;;;;;4.32;2.28;;;15.20;99.90;;;;;;5053142;28;20090;-77
2022/05/21 07:59:45;;;;;;;2.97;2.55;;;15.50;99.90;;;;;;5053521;28;20467;-76
2022/05/21 08:02:15;;;;;;;3.53;2.50;;;15.40;99.90;;;;;;5040546;28;20044;-76
2022/05/21 08:04:41;;;;;;;4.95;2.30;;;15.00;99.90;;;;;;5041299;28;20025;-76
2022/05/21 08:07:06;;;;;;;3.33;1.90;;;14.60;99.90;;;;;;5053836;28;20040;-76
2022/05/21 08:09:32;;;;;;;8.65;2.20;;;14.90;99.90;;;;;;5047888;28;20034;-77
2022/05/21 08:11:57;;;;;;;3.67;2.40;;;15.00;99.90;;;;;;5045707;28;20102;-76
2022/05/21 08:14:23;;;;;;;3.95;2.15;;;14.90;99.90;;;;;;5041612;28;20148;-77
2022/05/21 08:16:49;;;;;;;3.10;2.42;;;15.10;99.90;;;;;;5040654;28;20076;-76
2022/05/21 08:19:15;;;;;;;2.95;1.83;;;15.10;99.90;;;;;;5045692;28;20112;-72
2022/05/21 08:21:41;;;;;;;3.38;2.20;;;15.30;99.90;;;;;;5047869;28;20363;-77
2022/05/21 08:26:57;;;;;;;4.03;2.10;;;15.30;99.90;;;;;;5041384;28;20044;-77
2022/05/21 08:29:29;;;;;;;7.45;1.80;;;15.30;99.90;;;;;;5045846;28;20027;-77
2022/05/21 08:31:55;;;;;;;3.20;2.00;;;15.60;99.90;;;;;;5049061;28;20075;-78
2022/05/21 08:34:22;;;;;;;4.72;1.90;;;15.70;99.90;;;;;;5047518;28;20466;-77
2022/05/21 08:36:48;;;;;;;3.25;2.05;;;15.90;99.90;;;;;;5041287;28;20025;-77
2022/05/21 08:39:15;;;;;;;2.67;2.10;;;16.10;99.90;;;;;;5055334;28;20044;-77
2022/05/21 08:41:51;;;;;;;2.55;2.10;;;16.00;99.90;;;;;;5040645;28;20490;-77
2022/05/21 08:44:36;;;;;;;;;;;16.20;99.90;;;;;;5053806;28;20067;-77
2022/05/21 08:47:29;;;;;;;3.72;1.77;;;16.10;99.90;;;;;;5043390;28;19904;-76
2022/05/21 08:50:02;;;;;;;4.85;2.28;;;16.00;99.90;;;;;;5045912;28;20025;-76
2022/05/21 08:52:49;;;;;;;6.10;3.17;;;15.90;99.90;;;;;;5046187;28;20052;-76
2022/05/21 08:55:28;;;;;;;3.38;2.22;;;16.00;99.90;;;;;;5042585;28;20071;-76
2022/05/21 08:58:01;;;;;;;4.55;2.17;;;15.70;99.90;;;;;;5038830;28;20025;-77
2022/05/21 09:00:37;;;;;;;5.65;2.83;;;15.60;99.90;;;;;;5039814;28;20022;-77
2022/05/21 09:03:22;;;;;;;;;;;16.10;99.90;;;;;;5046183;28;20150;-76
2022/05/21 09:05:59;;;;;;;2.63;1.83;;;16.90;99.90;;;;;;5045534;28;19904;-77
2022/05/21 09:08:33;;;;;;;2.75;1.80;;;16.70;99.90;;;;;;5042372;28;20040;-77
2022/05/21 09:11:11;;;;;;;3.88;2.22;;;16.50;99.90;;;;;;5037976;28;20040;-76
2022/05/21 09:13:46;;;;;;;2.65;2.00;;;16.70;99.90;;;;;;5040293;28;20030;-76
2022/05/21 09:19:37;;;;;;;4.38;2.42;;;16.60;99.90;;;;;;4951859;28;20065;-76
2022/05/21 09:22:06;;;;;;;4.13;2.28;;;17.00;99.90;;;;;;4964865;28;20058;-77
2022/05/21 09:24:35;;;;;;;2.63;1.88;;;16.60;99.90;;;;;;5008344;28;20399;-75
2022/05/21 09:27:02;;;;;;;4.00;1.83;;;16.20;99.90;;;;;;5048377;28;20057;-77
2022/05/21 09:29:33;;;;;;;4.88;1.77;;;16.80;99.90;;;;;;5041121;28;20029;-76
2022/05/21 09:31:59;;;;;;;3.85;1.77;;;17.40;99.90;;;;;;5037473;28;20112;-77
2022/05/21 09:34:27;;;;;;;4.97;2.28;;;17.40;99.90;;;;;;5042650;28;20136;-77
2022/05/21 09:36:54;;;;;;;4.53;1.77;;;17.10;99.90;;;;;;5044744;28;20061;-76
2022/05/21 09:39:35;;;;;;;4.90;1.55;;;17.60;99.90;;;;;;5031729;28;20025;-77
2022/05/21 09:45:22;;;;;;;2.95;1.45;;;17.50;99.90;;;;;;5039730;28;20063;-77
2022/05/21 09:47:51;;;;;;;3.00;2.00;;;17.20;99.90;;;;;;5044316;28;20025;-77
2022/05/21 09:50:23;;;;;;;5.75;3.17;;;17.50;99.90;;;;;;5056573;28;20045;-75
2022/05/21 09:52:49;;;;;;;4.35;1.73;;;18.00;99.90;;;;;;5044874;28;20056;-77
2022/05/21 09:55:32;;;;;;;3.03;1.90;;;18.30;99.90;;;;;;5058780;28;20028;-76
2022/05/21 09:58:10;;;;;;;2.58;1.60;;;17.90;99.90;;;;;;5063529;28;20032;-76
2022/05/21 10:00:37;;;;;;;2.65;1.70;;;17.10;99.90;;;;;;5051213;28;20106;-77
2022/05/21 10:03:09;;;;;;;4.50;1.70;;;17.00;99.90;;;;;;5039283;28;20033;-76
2022/05/21 10:05:46;;;;;;;2.05;1.70;;;17.10;99.90;;;;;;5052779;28;20091;-76
2022/05/21 10:11:31;;;;;;;3.58;1.60;;;17.40;99.90;;;;;;4990918;28;20663;-77
2022/05/21 10:14:34;;;;;;;2.80;1.60;;;17.70;99.90;;;;;;5051467;28;20710;-76
2022/05/21 10:17:19;;;;;;;3.85;1.75;;;17.70;99.90;;;;;;5038035;28;20128;-76
2022/05/21 10:20:18;;;;;;;4.50;1.40;;;16.90;99.90;;;;;;5043249;28;20424;-77
2022/05/21 10:23:08;;;;;;;4.43;1.83;;;16.90;99.90;;;;;;5040352;28;20041;-76
2022/05/21 10:26:04;;;;;;;2.60;1.55;;;17.10;99.90;;;;;;5051880;28;20028;-77
2022/05/21 10:28:57;;;;;;;2.92;1.70;;;17.40;99.90;;;;;;5050567;28;20021;-76
2022/05/21 10:31:54;;;;;;;2.97;1.40;;;17.40;99.90;;;;;;5050938;28;20017;-76
2022/05/21 10:34:44;;;;;;;3.83;1.25;;;17.30;99.90;;;;;;5042467;28;20077;-77
2022/05/21 10:37:28;;;;;;;2.65;1.35;;;17.30;99.90;;;;;;5038909;28;20025;-76
2022/05/21 10:40:25;;;;;;;2.42;1.50;;;17.40;99.90;;;;;;5051549;28;20061;-77
2022/05/21 10:43:03;;;;;;;2.63;1.20;;;17.80;99.90;;;;;;5036704;28;20458;-77
2022/05/21 10:45:33;;;;;;;1.83;1.40;;;17.90;99.90;;;;;;5041756;28;20025;-77
2022/05/21 10:48:16;;;;;;;4.35;1.77;;;18.20;99.90;;;;;;5044911;28;20075;-77
2022/05/21 10:51:05;;;;;;;3.00;1.48;;;18.50;99.90;;;;;;5040826;28;20025;-77
2022/05/21 10:53:58;;;;;;;2.50;1.30;;;18.50;99.90;;;;;;5044749;28;20025;-77
2022/05/21 10:56:36;;;;;;;4.50;2.22;;;18.30;99.90;;;;;;5044752;28;20030;-78
2022/05/21 10:59:14;;;;;;;2.20;1.10;;;18.40;99.90;;;;;;5044710;28;20386;-77
2022/05/21 11:02:03;;;;;;;2.92;1.40;;;17.70;99.90;;;;;;5030886;28;20156;-77
2022/05/21 11:04:59;;;;;;;4.10;1.23;;;17.30;99.90;;;;;;5041522;28;20056;-77
2022/05/21 11:07:51;;;;;;;3.60;1.65;;;17.20;99.90;;;;;;5035369;28;20116;-77
2022/05/21 11:10:32;;;;;;;3.42;1.70;;;17.20;99.90;;;;;;5044341;28;20075;-77
2022/05/21 11:13:29;;;;;;;3.45;1.33;;;17.10;99.90;;;;;;5038604;28;20021;-76
2022/05/21 11:16:01;;;;;;;1.80;1.10;;;17.30;99.90;;;;;;5052087;28;20035;-77
2022/05/21 11:18:42;;;;;;;7.50;1.70;;;17.40;99.90;;;;;;5050230;28;20048;-76
2022/05/21 11:21:26;;;;;;;1.60;1.30;;;17.20;99.90;;;;;;5039446;28;20406;-77
2022/05/21 11:24:18;;;;;;;2.13;1.30;;;17.60;99.90;;;;;;5044266;28;20030;-77
2022/05/21 11:27:19;;;;;;;1.52;1.13;;;17.90;99.90;;;;;;5032479;28;20040;-77
2022/05/21 11:29:53;;;;;;;2.47;1.25;;;18.50;99.90;;;;;;4996599;28;20050;-76
2022/05/21 11:38:26;;;;;;;2.75;1.40;;;18.60;99.90;;;;;;5044793;28;20091;-77
2022/05/21 11:47:23;;;;;;;5.00;1.65;;;19.00;99.90;;;;;;5042523;28;20079;-76
2022/05/21 11:49:59;;;;;;;2.40;1.25;;;18.90;99.90;;;;;;5047883;28;20060;-76
2022/05/21 11:52:28;;;;;;;;;;;19.00;99.90;;;;;;5041887;28;20026;-77
2022/05/21 11:54:53;;;;;;;2.35;1.25;;;18.30;99.90;;;;;;5054111;28;19962;-75
2022/05/21 11:57:36;;;;;;;2.20;1.13;;;18.40;99.90;;;;;;5041626;28;20030;-77
2022/05/21 12:00:28;;;;;;;1.63;0.95;;;19.10;99.90;;;;;;5042216;28;20086;-77
2022/05/21 12:02:54;;;;;;;1.92;1.20;;;19.10;99.90;;;;;;5038382;28;20052;-76
2022/05/21 12:05:38;;;;;;;4.43;1.20;;;19.00;99.90;;;;;;5046771;28;20025;-76
2022/05/21 12:08:15;;;;;;;2.50;1.10;;;18.50;99.90;;;;;;5054268;28;20078;-76
2022/05/21 12:10:53;;;;;;;4.70;1.45;;;18.30;99.90;;;;;;5039416;28;20738;-76
2022/05/21 12:13:39;;;;;;;2.85;1.13;;;17.70;99.90;;;;;;5041599;28;20364;-76
2022/05/21 12:16:16;;;;;;;3.17;1.30;;;18.40;99.90;;;;;;5041505;28;20098;-77
2022/05/21 12:18:42;;;;;;;4.50;1.48;;;19.20;99.90;;;;;;5051977;28;20028;-76
2022/05/21 12:24:06;;;;;;;3.72;1.25;;;18.90;99.90;;;;;;5040524;28;20033;-77
2022/05/21 12:26:37;;;;;;;4.13;1.20;;;18.70;99.90;;;;;;5054050;28;20112;-76
2022/05/21 12:29:19;;;;;;;3.38;1.10;;;18.50;99.90;;;;;;5049117;28;20025;-77
2022/05/21 12:31:51;;;;;;;3.28;1.50;;;18.70;99.90;;;;;;5046652;28;20025;-76
2022/05/21 12:34:21;;;;;;;3.00;1.38;;;18.80;99.90;;;;;;5043796;28;20021;-76
2022/05/21 12:37:09;;;;;;;2.75;1.42;;;19.20;99.90;;;;;;5049966;28;20032;-77
2022/05/21 12:39:49;;;;;;;5.40;1.95;;;19.50;99.90;;;;;;5047632;28;20056;-77
2022/05/21 12:42:18;;;;;;;3.78;1.65;;;19.70;99.90;;;;;;5045340;28;20025;-76
2022/05/21 12:44:47;;;;;;;3.08;1.42;;;20.10;99.90;;;;;;5047179;28;20072;-77
2022/05/21 12:47:28;;;;;;;7.30;1.35;;;20.30;99.90;;;;;;5043306;28;20025;-76
2022/05/21 12:49:55;;;;;;;3.05;1.33;;;20.50;99.90;;;;;;5040469;28;20100;-77
2022/05/21 12:52:45;;;;;;;2.97;1.30;;;20.10;99.90;;;;;;5041497;28;20021;-77
2022/05/21 12:55:30;;;;;;;3.30;1.30;;;18.90;99.90;;;;;;5034161;28;20057;-76
2022/05/21 12:58:13;;;;;;;4.45;1.38;;;19.60;99.90;;;;;;5051518;28;20077;-77
2022/05/21 13:00:53;;;;;;;4.70;1.40;;;20.10;99.90;;;;;;5037885;28;20061;-76
2022/05/21 13:03:21;;;;;;;3.90;1.30;;;20.70;99.90;;;;;;5043207;28;20029;-76
2022/05/21 13:05:58;;;;;;;1.55;1.20;;;19.90;99.90;;;;;;5048029;28;20028;-77
2022/05/21 13:08:26;;;;;;;1.80;1.10;;;19.30;99.90;;;;;;5042476;28;20120;-77
2022/05/21 13:11:01;;;;;;;3.25;1.38;;;19.80;99.90;;;;;;5052942;28;20021;-77
2022/05/21 13:13:31;;;;;;;3.50;1.60;;;19.70;99.90;;;;;;5040145;28;20101;-78
2022/05/21 13:15:59;;;;;;;4.57;1.50;;;20.00;99.90;;;;;;5051662;28;20098;-77
2022/05/21 13:18:43;;;;;;;3.35;1.35;;;20.00;99.90;;;;;;5048009;28;20062;-77
2022/05/21 13:21:15;;;;;;;3.50;1.48;;;19.40;99.90;;;;;;5061859;28;20021;-76
2022/05/21 13:24:43;;;;;;;2.47;1.45;;;19.90;99.90;;;;;;5049639;28;20029;-76
2022/05/21 13:27:17;;;;;;;2.15;1.20;;;19.30;99.90;;;;;;4968526;28;20022;-76
2022/05/21 13:29:44;;;;;;;3.13;1.10;;;19.20;99.90;;;;;;4984036;28;20039;-76
2022/05/21 13:32:30;;;;;;;3.38;1.25;;;19.10;99.90;;;;;;5009773;28;20029;-76
2022/05/21 13:34:58;;;;;;;3.17;1.33;;;19.10;99.90;;;;;;5043645;28;20118;-76
2022/05/21 13:37:38;;;;;;;3.10;1.20;;;18.80;99.90;;;;;;5041495;28;20025;-75
2022/05/21 13:40:14;;;;;;;4.07;1.23;;;18.60;99.90;;;;;;5051559;28;20099;-76
2022/05/21 13:42:43;;;;;;;4.65;1.38;;;18.70;99.90;;;;;;5052412;28;20110;-76